Time;durP1;ratioP1;P1;durP2;ratioP2;P2;SDS_P1;SDS_P2;PMS_P1;PMS_P2;Temp;Humidity;BMP_temperature;BMP_pressure;BME280_temperature;BME280_humidity;BME280_pressure;Samples;Min_cycle;Max_cycle;Signal;HPM_P1;HPM_P2
2024/02/18 00:00:07;;;;;;;2.67;0.40;;;;;;;;;;2071200;28;20034;-75
2024/02/18 00:01:26;;;;;;;0.82;0.45;;;;;;;;;;2074651;28;20046;-75
2024/02/18 00:02:45;;;;;;;9.13;0.88;;;;;;;;;;2075285;28;20033;-74
2024/02/18 00:04:03;;;;;;;1.30;0.30;;;;;;;;;;2075421;28;20185;-74
2024/02/18 00:05:23;;;;;;;0.82;0.30;;;;;;;;;;2066477;28;20042;-74
2024/02/18 00:06:42;;;;;;;1.75;0.38;;;;;;;;;;2072607;28;20025;-75
2024/02/18 00:08:02;;;;;;;2.72;0.60;;;;;;;;;;2073521;28;20030;-75
2024/02/18 00:09:20;;;;;;;0.90;0.50;;;;;;;;;;2074962;28;20030;-76
2024/02/18 00:10:40;;;;;;;2.05;0.50;;;;;;;;;;2075804;28;20025;-76
2024/02/18 00:11:59;;;;;;;2.45;0.43;;;;;;;;;;2074991;28;20479;-74
2024/02/18 00:13:17;;;;;;;5.20;0.77;;;;;;;;;;2067589;28;20509;-77
2024/02/18 00:14:36;;;;;;;0.85;0.38;;;;;;;;;;2072567;28;20042;-77
2024/02/18 00:15:56;;;;;;;2.97;0.35;;;;;;;;;;2075267;28;20042;-78
2024/02/18 00:17:14;;;;;;;0.90;0.35;;;;;;;;;;2075665;28;20030;-78
2024/02/18 00:18:33;;;;;;;2.33;0.50;;;;;;;;;;2075441;28;20149;-78
2024/02/18 00:19:52;;;;;;;3.05;0.43;;;;;;;;;;2073875;28;20029;-78
2024/02/18 00:21:17;;;;;;;2.60;0.70;;;;;;;;;;2075576;28;20025;-78
2024/02/18 00:22:40;;;;;;;6.13;0.57;;;;;;;;;;2069792;28;20094;-78
2024/02/18 00:23:59;;;;;;;3.33;0.40;;;;;;;;;;2074804;28;20037;-78
2024/02/18 00:25:18;;;;;;;2.50;0.60;;;;;;;;;;2065304;28;20050;-78
2024/02/18 00:26:38;;;;;;;2.10;0.50;;;;;;;;;;2071650;28;20431;-78
2024/02/18 00:27:56;;;;;;;2.08;0.40;;;;;;;;;;2074769;28;20030;-78
2024/02/18 00:29:15;;;;;;;2.92;0.60;;;;;;;;;;2060465;28;20031;-78
2024/02/18 00:30:34;;;;;;;1.45;0.57;;;;;;;;;;2069169;28;20026;-78
2024/02/18 00:31:53;;;;;;;1.65;0.60;;;;;;;;;;2074495;28;20030;-78
2024/02/18 00:33:13;;;;;;;1.17;0.60;;;;;;;;;;2075357;28;20037;-78
2024/02/18 00:34:32;;;;;;;0.98;0.60;;;;;;;;;;2075669;28;20029;-77
2024/02/18 00:35:51;;;;;;;5.45;0.60;;;;;;;;;;2076469;28;20026;-79
2024/02/18 00:37:10;;;;;;;1.48;0.63;;;;;;;;;;2067560;28;20031;-79
2024/02/18 00:38:29;;;;;;;2.08;0.73;;;;;;;;;;2071743;28;20122;-78
2024/02/18 00:39:48;;;;;;;3.15;0.75;;;;;;;;;;2075536;28;20034;-79
2024/02/18 00:41:07;;;;;;;3.72;0.68;;;;;;;;;;2074991;28;20025;-78
2024/02/18 00:42:27;;;;;;;1.27;0.55;;;;;;;;;;2075889;28;20030;-79
2024/02/18 00:43:46;;;;;;;2.67;0.60;;;;;;;;;;2073356;28;20377;-79
2024/02/18 00:45:05;;;;;;;2.42;0.68;;;;;;;;;;2073405;28;20084;-79
2024/02/18 00:46:25;;;;;;;2.22;0.60;;;;;;;;;;2074193;28;20046;-78
2024/02/18 00:47:44;;;;;;;3.05;0.47;;;;;;;;;;2075523;28;20030;-79
2024/02/18 00:49:03;;;;;;;3.25;0.77;;;;;;;;;;2066956;28;20026;-79
2024/02/18 00:50:21;;;;;;;2.50;0.50;;;;;;;;;;2071919;28;20488;-79
2024/02/18 00:51:40;;;;;;;1.95;0.40;;;;;;;;;;2075878;28;20034;-79
2024/02/18 00:52:59;;;;;;;1.60;0.30;;;;;;;;;;2065021;28;20042;-79
2024/02/18 00:54:18;;;;;;;2.72;0.75;;;;;;;;;;2071928;28;20477;-78
2024/02/18 00:55:42;;;;;;;1.38;0.50;;;;;;;;;;2076823;28;20403;-78
2024/02/18 00:57:02;;;;;;;1.40;0.38;;;;;;;;;;2075941;28;20033;-78
2024/02/18 00:58:21;;;;;;;1.08;0.30;;;;;;;;;;2076801;28;20076;-79
2024/02/18 00:59:40;;;;;;;2.72;0.55;;;;;;;;;;2074707;28;20026;-79
2024/02/18 01:00:58;;;;;;;3.10;0.50;;;;;;;;;;2075077;28;20025;-78
2024/02/18 01:02:17;;;;;;;0.60;0.50;;;;;;;;;;2076905;28;20516;-78
2024/02/18 01:03:36;;;;;;;3.45;0.40;;;;;;;;;;2066602;28;20022;-78
2024/02/18 01:04:56;;;;;;;0.60;0.40;;;;;;;;;;2064526;28;20022;-78
2024/02/18 01:06:15;;;;;;;1.33;0.88;;;;;;;;;;2072399;28;20484;-80
2024/02/18 01:07:34;;;;;;;1.55;0.40;;;;;;;;;;2075472;28;20038;-79
2024/02/18 01:08:53;;;;;;;2.40;0.45;;;;;;;;;;2075202;28;20022;-78
2024/02/18 01:10:11;;;;;;;2.65;0.30;;;;;;;;;;2077214;28;20026;-78
2024/02/18 01:11:31;;;;;;;0.55;0.30;;;;;;;;;;2074695;28;20026;-78
2024/02/18 01:12:50;;;;;;;0.90;0.47;;;;;;;;;;2071788;28;20029;-78
2024/02/18 01:14:09;;;;;;;0.98;0.60;;;;;;;;;;2075480;28;20026;-76
2024/02/18 01:15:28;;;;;;;1.02;0.50;;;;;;;;;;2074608;28;20468;-78
2024/02/18 01:16:47;;;;;;;0.65;0.30;;;;;;;;;;2076824;28;20302;-79
2024/02/18 01:18:06;;;;;;;0.40;0.30;;;;;;;;;;2073270;28;20144;-79
2024/02/18 01:19:26;;;;;;;4.65;0.50;;;;;;;;;;2067450;28;20034;-78
2024/02/18 01:20:45;;;;;;;1.52;0.55;;;;;;;;;;2073294;28;20042;-79
2024/02/18 01:22:04;;;;;;;1.40;0.40;;;;;;;;;;2066649;28;20506;-80
2024/02/18 01:23:22;;;;;;;0.80;0.30;;;;;;;;;;2071773;28;20037;-74
2024/02/18 01:24:42;;;;;;;2.10;0.40;;;;;;;;;;2074186;28;20026;-74
2024/02/18 01:26:03;;;;;;;1.08;0.55;;;;;;;;;;2074189;28;20041;-74
2024/02/18 01:27:21;;;;;;;0.80;0.30;;;;;;;;;;2073946;28;20153;-73
2024/02/18 01:28:41;;;;;;;0.32;0.32;;;;;;;;;;2073846;28;20432;-74
2024/02/18 01:30:00;;;;;;;2.28;0.47;;;;;;;;;;2075834;28;20025;-74
2024/02/18 01:31:20;;;;;;;2.67;0.50;;;;;;;;;;2076191;28;20018;-74
2024/02/18 01:32:39;;;;;;;0.40;0.30;;;;;;;;;;2074101;28;20026;-74
2024/02/18 01:33:58;;;;;;;1.90;0.40;;;;;;;;;;2075059;28;20034;-74
2024/02/18 01:35:16;;;;;;;2.47;0.70;;;;;;;;;;2075704;28;20030;-74
2024/02/18 01:36:35;;;;;;;1.77;0.52;;;;;;;;;;2074919;28;20038;-76
2024/02/18 01:37:54;;;;;;;1.08;0.55;;;;;;;;;;2074181;28;20045;-74
2024/02/18 01:39:13;;;;;;;0.77;0.45;;;;;;;;;;2075047;28;20057;-74
2024/02/18 01:40:32;;;;;;;0.60;0.35;;;;;;;;;;2074132;28;20029;-73
2024/02/18 01:41:52;;;;;;;2.88;0.50;;;;;;;;;;2075278;28;20033;-75
2024/02/18 01:43:12;;;;;;;3.55;0.60;;;;;;;;;;2073935;28;20042;-75
2024/02/18 01:44:32;;;;;;;2.88;0.85;;;;;;;;;;2074518;28;20037;-75
2024/02/18 01:45:51;;;;;;;1.27;0.43;;;;;;;;;;2076447;28;20040;-74
2024/02/18 01:47:11;;;;;;;2.42;0.30;;;;;;;;;;2075280;28;20030;-74
2024/02/18 01:48:31;;;;;;;1.58;0.35;;;;;;;;;;2074279;28;20437;-74
2024/02/18 01:49:51;;;;;;;0.73;0.47;;;;;;;;;;2075338;28;20034;-75
2024/02/18 01:51:10;;;;;;;3.80;0.77;;;;;;;;;;2073946;28;20572;-74
2024/02/18 01:52:29;;;;;;;1.30;0.80;;;;;;;;;;2073961;28;20120;-74
2024/02/18 01:53:49;;;;;;;3.08;0.40;;;;;;;;;;2066804;28;20027;-75
2024/02/18 01:55:09;;;;;;;0.60;0.50;;;;;;;;;;2061650;28;20065;-75
2024/02/18 01:56:29;;;;;;;0.85;0.32;;;;;;;;;;2071448;28;20076;-75
2024/02/18 01:57:48;;;;;;;1.55;0.55;;;;;;;;;;2074335;28;20034;-72
2024/02/18 01:59:07;;;;;;;0.28;0.25;;;;;;;;;;2074038;28;20508;-74
2024/02/18 02:00:26;;;;;;;1.48;0.40;;;;;;;;;;2074822;28;20108;-74
2024/02/18 02:01:45;;;;;;;0.77;0.63;;;;;;;;;;2074565;28;20037;-74
2024/02/18 02:03:04;;;;;;;0.90;0.50;;;;;;;;;;2075328;28;20065;-74
2024/02/18 02:04:23;;;;;;;1.08;0.40;;;;;;;;;;2074477;28;20057;-74
2024/02/18 02:05:43;;;;;;;1.05;0.40;;;;;;;;;;2074397;28;20029;-74
2024/02/18 02:07:03;;;;;;;1.20;0.63;;;;;;;;;;2075357;28;20026;-74
2024/02/18 02:08:25;;;;;;;0.50;0.40;;;;;;;;;;2073914;28;20045;-74
2024/02/18 02:09:45;;;;;;;1.27;0.22;;;;;;;;;;2074432;28;20042;-74
2024/02/18 02:11:04;;;;;;;1.45;0.70;;;;;;;;;;2067478;28;20519;-74
2024/02/18 02:12:22;;;;;;;1.90;0.50;;;;;;;;;;2062869;28;20616;-73
2024/02/18 02:13:41;;;;;;;1.60;0.40;;;;;;;;;;2071672;28;20033;-75
2024/02/18 02:15:00;;;;;;;0.55;0.30;;;;;;;;;;2073993;28;20031;-74
2024/02/18 02:16:19;;;;;;;1.33;0.68;;;;;;;;;;2074145;28;20034;-74
2024/02/18 02:17:38;;;;;;;1.45;0.32;;;;;;;;;;2064532;28;20066;-75
2024/02/18 02:18:57;;;;;;;0.45;0.45;;;;;;;;;;2071253;28;20026;-75
2024/02/18 02:20:16;;;;;;;1.33;0.50;;;;;;;;;;2073240;28;20030;-75
2024/02/18 02:21:35;;;;;;;0.55;0.20;;;;;;;;;;2073592;28;20025;-73
2024/02/18 02:22:54;;;;;;;0.90;0.40;;;;;;;;;;2066622;28;20029;-74
2024/02/18 02:24:13;;;;;;;0.73;0.40;;;;;;;;;;2069358;28;20065;-74
2024/02/18 02:25:33;;;;;;;2.97;0.55;;;;;;;;;;2075422;28;20045;-74
2024/02/18 02:26:54;;;;;;;2.40;0.47;;;;;;;;;;2074624;28;20104;-74
2024/02/18 02:28:19;;;;;;;1.23;0.45;;;;;;;;;;2074588;28;20049;-74
2024/02/18 02:29:39;;;;;;;3.40;0.47;;;;;;;;;;2074401;28;20034;-74
2024/02/18 02:30:59;;;;;;;0.30;0.28;;;;;;;;;;2073952;28;20022;-76
2024/02/18 02:32:19;;;;;;;1.00;0.60;;;;;;;;;;2075093;28;20022;-74
2024/02/18 02:33:38;;;;;;;4.90;0.60;;;;;;;;;;2076659;28;20018;-75
2024/02/18 02:34:58;;;;;;;0.60;0.30;;;;;;;;;;2075645;28;20389;-74
2024/02/18 02:36:17;;;;;;;0.52;0.40;;;;;;;;;;2074805;28;20030;-75
2024/02/18 02:37:36;;;;;;;0.55;0.20;;;;;;;;;;2076735;28;20030;-74
2024/02/18 02:38:56;;;;;;;0.50;0.38;;;;;;;;;;2075516;28;20033;-75
2024/02/18 02:40:15;;;;;;;0.30;0.20;;;;;;;;;;2076835;28;20041;-75
2024/02/18 02:41:34;;;;;;;0.88;0.40;;;;;;;;;;2075895;28;20038;-75
2024/02/18 02:42:54;;;;;;;1.60;0.38;;;;;;;;;;2075128;28;20030;-75
2024/02/18 02:44:13;;;;;;;0.85;0.60;;;;;;;;;;2076685;28;20025;-74
2024/02/18 02:45:33;;;;;;;0.68;0.40;;;;;;;;;;2076763;28;20046;-74
2024/02/18 02:46:51;;;;;;;0.90;0.43;;;;;;;;;;2060984;28;20501;-74
2024/02/18 02:48:10;;;;;;;3.05;0.30;;;;;;;;;;2068732;28;20034;-74
2024/02/18 02:49:30;;;;;;;0.60;0.30;;;;;;;;;;2066884;28;20125;-74
2024/02/18 02:50:48;;;;;;;1.27;0.45;;;;;;;;;;2071464;28;20480;-73
2024/02/18 02:52:07;;;;;;;1.13;0.50;;;;;;;;;;2075594;28;20480;-75
2024/02/18 02:53:27;;;;;;;1.10;0.40;;;;;;;;;;2075480;28;20038;-74
2024/02/18 02:54:46;;;;;;;2.25;0.40;;;;;;;;;;2075924;28;20034;-75
2024/02/18 02:56:06;;;;;;;1.85;0.47;;;;;;;;;;2072916;28;20046;-75
2024/02/18 02:57:25;;;;;;;1.55;0.30;;;;;;;;;;2076271;28;20504;-74
2024/02/18 02:58:44;;;;;;;1.08;0.20;;;;;;;;;;2060371;28;20047;-75
2024/02/18 03:00:09;;;;;;;0.85;0.50;;;;;;;;;;2068081;28;20061;-75
2024/02/18 03:01:28;;;;;;;1.00;0.47;;;;;;;;;;2073011;28;20574;-74
2024/02/18 03:02:47;;;;;;;1.17;0.43;;;;;;;;;;2066443;28;20501;-75
2024/02/18 03:04:08;;;;;;;0.75;0.40;;;;;;;;;;2064711;28;20033;-74
2024/02/18 03:05:27;;;;;;;0.68;0.30;;;;;;;;;;2071794;28;20038;-73
2024/02/18 03:06:46;;;;;;;0.40;0.40;;;;;;;;;;2074911;28;20033;-74
2024/02/18 03:08:06;;;;;;;0.45;0.40;;;;;;;;;;2061344;28;20034;-74
2024/02/18 03:09:24;;;;;;;0.50;0.30;;;;;;;;;;2070560;28;20037;-73
2024/02/18 03:10:43;;;;;;;1.98;0.35;;;;;;;;;;2068577;28;20101;-74
2024/02/18 03:12:02;;;;;;;0.40;0.30;;;;;;;;;;2070127;28;20045;-74
2024/02/18 03:13:21;;;;;;;0.82;0.40;;;;;;;;;;2074978;28;20033;-74
2024/02/18 03:14:40;;;;;;;1.23;0.30;;;;;;;;;;2073956;28;20022;-75
2024/02/18 03:15:59;;;;;;;0.73;0.30;;;;;;;;;;2066398;28;20108;-74
2024/02/18 03:17:19;;;;;;;1.85;0.30;;;;;;;;;;2062256;28;20120;-75
2024/02/18 03:18:37;;;;;;;1.15;0.30;;;;;;;;;;2071536;28;20038;-74
2024/02/18 03:19:58;;;;;;;0.47;0.47;;;;;;;;;;2076374;28;20022;-74
2024/02/18 03:21:17;;;;;;;0.40;0.40;;;;;;;;;;2075726;28;20025;-74
2024/02/18 03:22:36;;;;;;;0.32;0.30;;;;;;;;;;2072963;28;20105;-75
2024/02/18 03:23:55;;;;;;;1.95;0.70;;;;;;;;;;2067520;28;20093;-75
2024/02/18 03:25:16;;;;;;;0.50;0.30;;;;;;;;;;2072138;28;20069;-75
2024/02/18 03:26:35;;;;;;;0.40;0.30;;;;;;;;;;2076627;28;20041;-73
2024/02/18 03:27:54;;;;;;;0.75;0.32;;;;;;;;;;2075640;28;20029;-74
2024/02/18 03:29:13;;;;;;;0.22;0.22;;;;;;;;;;2075566;28;20025;-74
2024/02/18 03:30:32;;;;;;;0.30;0.30;;;;;;;;;;2074910;28;20029;-73
2024/02/18 03:31:51;;;;;;;0.38;0.30;;;;;;;;;;2076149;28;20093;-75
2024/02/18 03:33:10;;;;;;;0.30;0.30;;;;;;;;;;2075946;28;20113;-74
2024/02/18 03:34:30;;;;;;;2.50;0.38;;;;;;;;;;2066484;28;20030;-74
2024/02/18 03:35:49;;;;;;;0.47;0.40;;;;;;;;;;2067269;28;20034;-75
2024/02/18 03:37:07;;;;;;;1.42;0.35;;;;;;;;;;2072346;28;20488;-74
2024/02/18 03:38:27;;;;;;;2.35;0.30;;;;;;;;;;2067515;28;20035;-73
2024/02/18 03:39:48;;;;;;;1.77;0.28;;;;;;;;;;2066605;28;20026;-75
2024/02/18 03:41:07;;;;;;;0.90;0.32;;;;;;;;;;2072438;28;20035;-74
2024/02/18 03:42:26;;;;;;;1.08;0.52;;;;;;;;;;2074294;28;20504;-74
2024/02/18 03:43:45;;;;;;;0.73;0.28;;;;;;;;;;2075682;28;20477;-76
2024/02/18 03:45:04;;;;;;;1.45;0.50;;;;;;;;;;2072892;28;20026;-76
2024/02/18 03:46:23;;;;;;;1.40;0.32;;;;;;;;;;2075545;28;20025;-77
2024/02/18 03:47:45;;;;;;;0.70;0.30;;;;;;;;;;2076704;28;20022;-77
2024/02/18 03:49:04;;;;;;;1.08;0.20;;;;;;;;;;2076905;28;20032;-78
2024/02/18 03:50:23;;;;;;;1.30;0.50;;;;;;;;;;2075709;28;20026;-77
2024/02/18 03:51:42;;;;;;;1.08;0.60;;;;;;;;;;2072091;28;20409;-76
2024/02/18 03:53:01;;;;;;;0.43;0.25;;;;;;;;;;2075948;28;20046;-78
2024/02/18 03:54:20;;;;;;;0.57;0.30;;;;;;;;;;2075581;28;20038;-76
2024/02/18 03:55:39;;;;;;;1.58;0.45;;;;;;;;;;2075852;28;20101;-76
2024/02/18 03:56:59;;;;;;;1.23;0.35;;;;;;;;;;2073570;28;20034;-78
2024/02/18 03:58:18;;;;;;;2.33;0.35;;;;;;;;;;2074966;28;20061;-76
2024/02/18 03:59:37;;;;;;;0.50;0.50;;;;;;;;;;2066024;28;20439;-76
2024/02/18 04:00:56;;;;;;;0.47;0.35;;;;;;;;;;2071242;28;20029;-77
2024/02/18 04:02:15;;;;;;;0.90;0.40;;;;;;;;;;2076755;28;20030;-77
2024/02/18 04:03:34;;;;;;;0.30;0.30;;;;;;;;;;2074642;28;20026;-77
2024/02/18 04:04:52;;;;;;;0.75;0.40;;;;;;;;;;2075193;28;20034;-76
2024/02/18 04:06:12;;;;;;;4.80;0.55;;;;;;;;;;2075424;28;20026;-77
2024/02/18 04:07:31;;;;;;;1.45;0.60;;;;;;;;;;2075696;28;20030;-77
2024/02/18 04:08:50;;;;;;;0.30;0.20;;;;;;;;;;2076187;28;20058;-77
2024/02/18 04:10:09;;;;;;;1.98;0.40;;;;;;;;;;2075781;28;20706;-77
2024/02/18 04:11:28;;;;;;;2.13;0.30;;;;;;;;;;2074225;28;20100;-77
2024/02/18 04:12:47;;;;;;;0.55;0.32;;;;;;;;;;2074745;28;20026;-77
2024/02/18 04:14:07;;;;;;;0.45;0.40;;;;;;;;;;2074037;28;20513;-77
2024/02/18 04:15:26;;;;;;;1.23;0.47;;;;;;;;;;2075076;28;20397;-77
2024/02/18 04:16:45;;;;;;;1.20;0.30;;;;;;;;;;2075300;28;20034;-76
2024/02/18 04:18:04;;;;;;;1.48;0.50;;;;;;;;;;2075029;28;20363;-76
2024/02/18 04:19:23;;;;;;;0.65;0.40;;;;;;;;;;2074603;28;20022;-77
2024/02/18 04:20:42;;;;;;;1.38;0.38;;;;;;;;;;2073751;28;20025;-76
2024/02/18 04:22:01;;;;;;;1.13;0.30;;;;;;;;;;2075265;28;20025;-76
2024/02/18 04:23:20;;;;;;;0.60;0.43;;;;;;;;;;2076719;28;20037;-78
2024/02/18 04:24:40;;;;;;;0.50;0.30;;;;;;;;;;2074422;28;20025;-77
2024/02/18 04:25:59;;;;;;;0.50;0.40;;;;;;;;;;2074395;28;20097;-77
2024/02/18 04:27:18;;;;;;;0.20;0.13;;;;;;;;;;2074808;28;20042;-77
2024/02/18 04:28:37;;;;;;;0.60;0.30;;;;;;;;;;2066433;28;20397;-77
2024/02/18 04:29:56;;;;;;;0.38;0.20;;;;;;;;;;2063551;28;20034;-77
2024/02/18 04:31:15;;;;;;;0.30;0.30;;;;;;;;;;2071346;28;20026;-76
2024/02/18 04:32:36;;;;;;;0.55;0.20;;;;;;;;;;2075736;28;20026;-76
2024/02/18 04:33:55;;;;;;;1.60;0.30;;;;;;;;;;2066548;28;20579;-76
2024/02/18 04:35:14;;;;;;;0.80;0.32;;;;;;;;;;2071364;28;20029;-76
2024/02/18 04:36:33;;;;;;;2.55;0.32;;;;;;;;;;2076174;28;20022;-77
2024/02/18 04:37:52;;;;;;;1.55;0.28;;;;;;;;;;2076224;28;20025;-78
2024/02/18 04:39:12;;;;;;;1.67;0.90;;;;;;;;;;2071740;28;20120;-78
2024/02/18 04:40:31;;;;;;;0.77;0.38;;;;;;;;;;2059817;28;20023;-75
2024/02/18 04:41:50;;;;;;;0.20;0.20;;;;;;;;;;2069960;28;20030;-77
2024/02/18 04:43:09;;;;;;;0.30;0.28;;;;;;;;;;2066951;28;20436;-76
2024/02/18 04:44:28;;;;;;;1.83;0.40;;;;;;;;;;2070313;28;20030;-77
2024/02/18 04:45:47;;;;;;;0.82;0.30;;;;;;;;;;2075640;28;20105;-77
2024/02/18 04:47:06;;;;;;;0.40;0.30;;;;;;;;;;2074859;28;20387;-79
2024/02/18 04:48:25;;;;;;;1.05;0.30;;;;;;;;;;2065732;28;20034;-76
2024/02/18 04:49:44;;;;;;;1.10;0.40;;;;;;;;;;2072640;28;20029;-77
2024/02/18 04:51:03;;;;;;;0.88;0.30;;;;;;;;;;2066385;28;20066;-77
2024/02/18 04:52:23;;;;;;;1.38;0.70;;;;;;;;;;2071225;28;20026;-77
2024/02/18 04:53:42;;;;;;;1.23;0.38;;;;;;;;;;2066187;28;20105;-76
2024/02/18 04:55:02;;;;;;;0.35;0.30;;;;;;;;;;2070866;28;20056;-76
2024/02/18 04:56:20;;;;;;;0.47;0.30;;;;;;;;;;2075066;28;20080;-76
2024/02/18 04:57:39;;;;;;;0.80;0.30;;;;;;;;;;2066342;28;20038;-77
2024/02/18 04:58:58;;;;;;;1.05;0.32;;;;;;;;;;2071997;28;20026;-76
2024/02/18 05:00:17;;;;;;;0.20;0.20;;;;;;;;;;2074272;28;20077;-76
2024/02/18 05:01:36;;;;;;;0.35;0.32;;;;;;;;;;2074360;28;20471;-77
2024/02/18 05:02:55;;;;;;;0.55;0.40;;;;;;;;;;2075211;28;20026;-78
2024/02/18 05:04:14;;;;;;;2.03;0.38;;;;;;;;;;2076214;28;20567;-76
2024/02/18 05:05:34;;;;;;;0.25;0.25;;;;;;;;;;2075821;28;20492;-77
2024/02/18 05:06:53;;;;;;;0.40;0.30;;;;;;;;;;2074976;28;20037;-76
2024/02/18 05:08:12;;;;;;;0.57;0.28;;;;;;;;;;2074812;28;20054;-77
2024/02/18 05:09:31;;;;;;;0.30;0.22;;;;;;;;;;2076183;28;20698;-76
2024/02/18 05:10:50;;;;;;;0.20;0.20;;;;;;;;;;2064043;28;20180;-75
2024/02/18 05:12:09;;;;;;;0.50;0.50;;;;;;;;;;2063381;28;20034;-76
2024/02/18 05:13:29;;;;;;;1.20;0.40;;;;;;;;;;2065603;28;20018;-76
2024/02/18 05:14:48;;;;;;;1.95;0.60;;;;;;;;;;2066108;28;20101;-77
2024/02/18 05:16:08;;;;;;;0.40;0.40;;;;;;;;;;2068996;28;20038;-78
2024/02/18 05:17:27;;;;;;;1.60;0.30;;;;;;;;;;2073322;28;20058;-76
2024/02/18 05:18:47;;;;;;;1.08;0.43;;;;;;;;;;2075069;28;20018;-77
2024/02/18 05:20:09;;;;;;;0.47;0.40;;;;;;;;;;2076064;28;20033;-75
2024/02/18 05:21:28;;;;;;;0.45;0.40;;;;;;;;;;2075462;28;20026;-76
2024/02/18 05:22:47;;;;;;;0.50;0.30;;;;;;;;;;2066556;28;20022;-76
2024/02/18 05:24:06;;;;;;;1.75;0.30;;;;;;;;;;2068827;28;20026;-77
2024/02/18 05:25:25;;;;;;;0.35;0.30;;;;;;;;;;2074637;28;20485;-77
2024/02/18 05:26:44;;;;;;;0.38;0.30;;;;;;;;;;2066611;28;20923;-76
2024/02/18 05:28:04;;;;;;;2.75;0.60;;;;;;;;;;2072759;28;20060;-77
2024/02/18 05:29:23;;;;;;;0.40;0.38;;;;;;;;;;2074889;28;20026;-76
2024/02/18 05:30:42;;;;;;;0.30;0.30;;;;;;;;;;2075110;28;20029;-77
2024/02/18 05:32:02;;;;;;;1.50;0.40;;;;;;;;;;2074084;28;20658;-76
2024/02/18 05:33:21;;;;;;;3.30;0.50;;;;;;;;;;2075006;28;20489;-76
2024/02/18 05:34:40;;;;;;;1.58;0.40;;;;;;;;;;2067103;28;20104;-75
2024/02/18 05:35:58;;;;;;;1.23;0.43;;;;;;;;;;2071686;28;20164;-75
2024/02/18 05:37:17;;;;;;;0.77;0.47;;;;;;;;;;2075788;28;20488;-78
2024/02/18 05:38:36;;;;;;;0.50;0.40;;;;;;;;;;2076037;28;20033;-76
2024/02/18 05:39:55;;;;;;;0.95;0.40;;;;;;;;;;2065788;28;20030;-78
2024/02/18 05:41:16;;;;;;;0.98;0.30;;;;;;;;;;2067982;28;20061;-77
2024/02/18 05:42:36;;;;;;;0.70;0.35;;;;;;;;;;2075765;28;20053;-77
2024/02/18 05:43:55;;;;;;;0.30;0.30;;;;;;;;;;2075431;28;20034;-77
2024/02/18 05:45:20;;;;;;;0.30;0.30;;;;;;;;;;2073765;28;20540;-77
2024/02/18 05:46:39;;;;;;;0.40;0.20;;;;;;;;;;2075880;28;20100;-76
2024/02/18 05:47:58;;;;;;;0.63;0.40;;;;;;;;;;2075384;28;20037;-78
2024/02/18 05:49:17;;;;;;;0.60;0.55;;;;;;;;;;2075650;28;20074;-76
2024/02/18 05:50:35;;;;;;;1.23;0.57;;;;;;;;;;2076316;28;20030;-79
2024/02/18 05:51:54;;;;;;;1.80;0.30;;;;;;;;;;2075188;28;20044;-76
2024/02/18 05:53:13;;;;;;;1.63;0.47;;;;;;;;;;2076400;28;20034;-76
2024/02/18 05:54:32;;;;;;;0.50;0.40;;;;;;;;;;2064701;28;20030;-78
2024/02/18 05:55:51;;;;;;;2.58;0.45;;;;;;;;;;2063166;28;20022;-76
2024/02/18 05:57:12;;;;;;;0.35;0.30;;;;;;;;;;2070991;28;20046;-76
2024/02/18 05:58:31;;;;;;;0.80;0.30;;;;;;;;;;2066709;28;20019;-77
2024/02/18 05:59:50;;;;;;;0.40;0.30;;;;;;;;;;2065395;28;20038;-76
2024/02/18 06:01:09;;;;;;;0.40;0.40;;;;;;;;;;2071302;28;20104;-77
2024/02/18 06:02:28;;;;;;;2.08;0.40;;;;;;;;;;2074059;28;20477;-76
2024/02/18 06:03:47;;;;;;;0.40;0.40;;;;;;;;;;2075122;28;20022;-74
2024/02/18 06:05:06;;;;;;;1.08;0.40;;;;;;;;;;2066649;28;20421;-74
2024/02/18 06:06:25;;;;;;;0.70;0.40;;;;;;;;;;2071646;28;20054;-74
2024/02/18 06:07:45;;;;;;;0.60;0.32;;;;;;;;;;2067174;28;20030;-74
2024/02/18 06:09:04;;;;;;;0.30;0.30;;;;;;;;;;2074645;28;20058;-74
2024/02/18 06:10:27;;;;;;;1.38;0.40;;;;;;;;;;2076266;28;20026;-74
2024/02/18 06:11:46;;;;;;;0.60;0.30;;;;;;;;;;2076850;28;20444;-75
2024/02/18 06:13:05;;;;;;;0.68;0.35;;;;;;;;;;2077646;28;20434;-75
2024/02/18 06:14:24;;;;;;;0.55;0.50;;;;;;;;;;2076848;28;20041;-74
2024/02/18 06:15:43;;;;;;;0.40;0.40;;;;;;;;;;2077787;28;20476;-74
2024/02/18 06:17:02;;;;;;;1.52;0.38;;;;;;;;;;2078837;28;20045;-74
2024/02/18 06:18:21;;;;;;;1.33;0.30;;;;;;;;;;2078850;28;20033;-74
2024/02/18 06:19:41;;;;;;;0.40;0.40;;;;;;;;;;2079385;28;20030;-75
2024/02/18 06:21:00;;;;;;;0.50;0.50;;;;;;;;;;2077004;28;20100;-73
2024/02/18 06:22:19;;;;;;;0.40;0.30;;;;;;;;;;2076736;28;20405;-74
2024/02/18 06:23:38;;;;;;;7.03;0.50;;;;;;;;;;2077342;28;20038;-74
2024/02/18 06:24:57;;;;;;;2.33;0.40;;;;;;;;;;2076246;28;20082;-75
2024/02/18 06:26:17;;;;;;;1.27;0.50;;;;;;;;;;2076802;28;20034;-74
2024/02/18 06:27:36;;;;;;;0.30;0.30;;;;;;;;;;2078016;28;20049;-74
2024/02/18 06:28:55;;;;;;;0.40;0.28;;;;;;;;;;2077238;28;20033;-75
2024/02/18 06:30:14;;;;;;;1.15;0.50;;;;;;;;;;2076536;28;20109;-75
2024/02/18 06:31:33;;;;;;;1.35;0.50;;;;;;;;;;2078140;28;20026;-74
2024/02/18 06:32:54;;;;;;;0.40;0.40;;;;;;;;;;2077721;28;20029;-75
2024/02/18 06:34:13;;;;;;;0.73;0.50;;;;;;;;;;2078612;28;20058;-75
2024/02/18 06:35:32;;;;;;;3.03;0.40;;;;;;;;;;2077304;28;20026;-74
2024/02/18 06:36:51;;;;;;;0.52;0.52;;;;;;;;;;2078170;28;20038;-75
2024/02/18 06:38:10;;;;;;;1.08;0.40;;;;;;;;;;2076355;28;20101;-74
2024/02/18 06:39:29;;;;;;;2.40;0.65;;;;;;;;;;2076626;28;20034;-73
2024/02/18 06:40:48;;;;;;;2.13;0.45;;;;;;;;;;2075883;28;20558;-74
2024/02/18 06:42:08;;;;;;;2.40;0.50;;;;;;;;;;2077442;28;20438;-75
2024/02/18 06:43:28;;;;;;;0.60;0.50;;;;;;;;;;2076953;28;20100;-75
2024/02/18 06:44:46;;;;;;;2.25;0.50;;;;;;;;;;2077271;28;20026;-73
2024/02/18 06:46:05;;;;;;;0.60;0.45;;;;;;;;;;2078289;28;20485;-75
2024/02/18 06:47:24;;;;;;;2.05;0.47;;;;;;;;;;2077291;28;20037;-74
2024/02/18 06:48:43;;;;;;;3.70;0.73;;;;;;;;;;2077547;28;20116;-75
2024/02/18 06:50:03;;;;;;;1.15;0.50;;;;;;;;;;2075955;28;20412;-74
2024/02/18 06:51:22;;;;;;;1.33;0.55;;;;;;;;;;2076139;28;20034;-73
2024/02/18 06:52:42;;;;;;;2.83;0.77;;;;;;;;;;2068913;28;20439;-74
2024/02/18 06:54:01;;;;;;;1.88;0.40;;;;;;;;;;2066051;28;20038;-74
2024/02/18 06:55:21;;;;;;;0.50;0.50;;;;;;;;;;2072517;28;20069;-76
2024/02/18 06:56:40;;;;;;;1.88;0.50;;;;;;;;;;2077067;28;20093;-75
2024/02/18 06:57:59;;;;;;;0.65;0.40;;;;;;;;;;2077538;28;20065;-74
2024/02/18 06:59:18;;;;;;;3.22;0.60;;;;;;;;;;2075534;28;20025;-75
2024/02/18 07:00:37;;;;;;;0.55;0.55;;;;;;;;;;2076687;28;20030;-75
2024/02/18 07:01:56;;;;;;;1.92;0.70;;;;;;;;;;2076036;28;20112;-75
2024/02/18 07:03:15;;;;;;;0.40;0.40;;;;;;;;;;2069286;28;20030;-75
2024/02/18 07:04:34;;;;;;;0.93;0.30;;;;;;;;;;2065322;28;20471;-76
2024/02/18 07:05:53;;;;;;;1.27;0.63;;;;;;;;;;2068913;28;20034;-76
2024/02/18 07:07:12;;;;;;;1.00;0.47;;;;;;;;;;2073151;28;20022;-74
2024/02/18 07:08:31;;;;;;;0.60;0.60;;;;;;;;;;2076204;28;20528;-75
2024/02/18 07:09:50;;;;;;;0.60;0.55;;;;;;;;;;2077962;28;20033;-74
2024/02/18 07:11:09;;;;;;;0.50;0.50;;;;;;;;;;2077210;28;20488;-75
2024/02/18 07:12:29;;;;;;;1.55;0.30;;;;;;;;;;2077527;28;20492;-74
2024/02/18 07:13:48;;;;;;;0.73;0.70;;;;;;;;;;2067117;28;20475;-74
2024/02/18 07:15:07;;;;;;;1.58;0.65;;;;;;;;;;2071420;28;20416;-75
2024/02/18 07:16:25;;;;;;;1.48;0.77;;;;;;;;;;2077018;28;20504;-74
2024/02/18 07:17:44;;;;;;;0.63;0.40;;;;;;;;;;2076835;28;20057;-75
2024/02/18 07:19:03;;;;;;;2.95;0.50;;;;;;;;;;2061724;28;20031;-75
2024/02/18 07:20:22;;;;;;;1.42;0.50;;;;;;;;;;2067909;28;20112;-75
2024/02/18 07:21:42;;;;;;;0.93;0.38;;;;;;;;;;2066184;28;20026;-74
2024/02/18 07:23:01;;;;;;;2.28;0.47;;;;;;;;;;2074357;28;20038;-75
2024/02/18 07:24:20;;;;;;;0.55;0.43;;;;;;;;;;2074273;28;20021;-75
2024/02/18 07:25:42;;;;;;;1.60;0.50;;;;;;;;;;2060630;28;20109;-74
2024/02/18 07:27:01;;;;;;;0.47;0.47;;;;;;;;;;2069464;28;20939;-76
2024/02/18 07:28:20;;;;;;;3.80;0.63;;;;;;;;;;2068698;28;20023;-75
2024/02/18 07:29:39;;;;;;;0.80;0.50;;;;;;;;;;2071658;28;20128;-75
2024/02/18 07:30:59;;;;;;;1.23;0.40;;;;;;;;;;2060677;28;20030;-75
2024/02/18 07:32:19;;;;;;;0.45;0.40;;;;;;;;;;2069967;28;20058;-74
2024/02/18 07:33:38;;;;;;;1.27;0.88;;;;;;;;;;2069538;28;20065;-75
2024/02/18 07:34:57;;;;;;;0.73;0.50;;;;;;;;;;2074799;28;20042;-75
2024/02/18 07:36:16;;;;;;;4.72;0.82;;;;;;;;;;2073880;28;20030;-75
2024/02/18 07:37:35;;;;;;;8.35;0.50;;;;;;;;;;2069418;28;20041;-75
2024/02/18 07:38:53;;;;;;;1.77;0.50;;;;;;;;;;2073768;28;20037;-75
2024/02/18 07:40:12;;;;;;;1.05;0.60;;;;;;;;;;2074888;28;20388;-73
2024/02/18 07:41:31;;;;;;;0.80;0.80;;;;;;;;;;2075059;28;20380;-74
2024/02/18 07:42:50;;;;;;;1.17;0.55;;;;;;;;;;2074345;28;20034;-74
2024/02/18 07:44:09;;;;;;;0.70;0.60;;;;;;;;;;2074922;28;20025;-75
2024/02/18 07:45:28;;;;;;;0.95;0.60;;;;;;;;;;2074058;28;20031;-75
2024/02/18 07:46:48;;;;;;;1.92;0.90;;;;;;;;;;2075112;28;20037;-74
2024/02/18 07:48:09;;;;;;;1.65;0.60;;;;;;;;;;2075935;28;20022;-74
2024/02/18 07:49:28;;;;;;;0.43;0.43;;;;;;;;;;2075382;28;20018;-73
2024/02/18 07:50:47;;;;;;;1.17;0.50;;;;;;;;;;2075620;28;20030;-76
2024/02/18 07:52:06;;;;;;;2.47;0.70;;;;;;;;;;2065934;28;20026;-77
2024/02/18 07:53:26;;;;;;;0.85;0.68;;;;;;;;;;2055767;28;20046;-76
2024/02/18 07:54:45;;;;;;;0.60;0.40;;;;;;;;;;2068760;28;20038;-75